createdAt,value
2018-06-16T00:01:55.771Z,17.50
2018-06-16T00:04:23.333Z,17.50
2018-06-16T00:06:50.922Z,17.40
2018-06-16T00:09:18.480Z,17.40
2018-06-16T00:11:46.048Z,17.30
2018-06-16T00:14:13.577Z,17.30
2018-06-16T00:16:41.141Z,17.30
2018-06-16T00:19:08.733Z,17.20
2018-06-16T00:21:36.296Z,17.20
2018-06-16T00:24:03.829Z,17.10
2018-06-16T00:26:31.352Z,17.00
2018-06-16T00:28:58.919Z,17.00
2018-06-16T00:31:26.449Z,16.90
2018-06-16T00:33:54.306Z,16.90
2018-06-16T00:36:21.865Z,16.90
2018-06-16T00:38:49.412Z,16.90
2018-06-16T00:41:17.124Z,16.90
2018-06-16T00:43:44.649Z,16.80
2018-06-16T00:46:12.345Z,16.80
2018-06-16T00:48:40.795Z,16.70
2018-06-16T00:51:08.320Z,16.70
2018-06-16T00:53:36.021Z,16.70
2018-06-16T00:56:03.648Z,16.70
2018-06-16T00:58:31.165Z,16.70
2018-06-16T01:00:58.702Z,16.70
2018-06-16T01:03:26.272Z,16.60
2018-06-16T01:05:53.789Z,16.60
2018-06-16T01:08:21.461Z,16.50
2018-06-16T01:10:48.983Z,16.40
2018-06-16T01:13:16.525Z,16.40
2018-06-16T01:15:44.061Z,16.50
2018-06-16T01:18:11.597Z,16.50
2018-06-16T01:20:39.254Z,16.60
2018-06-16T01:23:06.785Z,16.50
2018-06-16T01:25:34.338Z,16.40
2018-06-16T01:28:01.873Z,16.30
2018-06-16T01:30:29.433Z,16.20
2018-06-16T01:32:56.964Z,16.30
2018-06-16T01:35:24.681Z,16.30
2018-06-16T01:37:53.189Z,16.20
2018-06-16T01:40:20.819Z,16.20
2018-06-16T01:42:48.361Z,16.20
2018-06-16T01:45:15.922Z,16.10
2018-06-16T01:47:43.433Z,16.10
2018-06-16T01:50:10.976Z,16.10
2018-06-16T01:52:38.489Z,16.00
2018-06-16T01:55:06.041Z,16.00
2018-06-16T01:57:33.693Z,16.00
2018-06-16T02:00:01.255Z,15.90
2018-06-16T02:02:28.918Z,15.90
2018-06-16T02:04:56.453Z,15.80
2018-06-16T02:07:30.736Z,15.80
2018-06-16T02:09:58.370Z,15.90
2018-06-16T02:12:26.085Z,15.90
2018-06-16T02:14:53.628Z,15.90
2018-06-16T02:17:21.221Z,15.90
2018-06-16T02:19:48.768Z,15.90
2018-06-16T02:22:16.340Z,15.80
2018-06-16T02:24:43.946Z,15.80
2018-06-16T02:27:11.593Z,15.80
2018-06-16T02:29:43.357Z,15.80
2018-06-16T02:32:10.907Z,15.80
2018-06-16T02:34:38.569Z,15.90
2018-06-16T02:37:06.130Z,15.80
2018-06-16T02:39:33.797Z,15.70
2018-06-16T02:42:01.390Z,15.70
2018-06-16T02:44:29.003Z,15.70
2018-06-16T02:46:56.546Z,15.70
2018-06-16T02:49:24.137Z,15.60
2018-06-16T02:51:51.798Z,15.60
2018-06-16T02:54:19.349Z,15.70
2018-06-16T02:56:47.033Z,15.60
2018-06-16T02:59:14.657Z,15.60
2018-06-16T03:01:42.266Z,15.50
2018-06-16T03:04:09.838Z,15.60
2018-06-16T03:06:37.493Z,15.50
2018-06-16T03:09:05.921Z,15.40
2018-06-16T03:11:33.471Z,15.50
2018-06-16T03:14:01.146Z,15.50
2018-06-16T03:16:28.713Z,15.50
2018-06-16T03:18:57.125Z,15.60
2018-06-16T03:21:24.661Z,15.60
2018-06-16T03:23:52.210Z,15.50
2018-06-16T03:26:22.762Z,15.50
2018-06-16T03:28:50.305Z,15.40
2018-06-16T03:31:19.525Z,15.50
2018-06-16T03:33:47.066Z,15.60
2018-06-16T03:36:14.671Z,15.60
2018-06-16T03:38:42.198Z,15.60
2018-06-16T03:41:09.869Z,15.60
2018-06-16T03:43:37.404Z,15.60
2018-06-16T03:46:05.089Z,15.70
2018-06-16T03:48:32.669Z,15.70
2018-06-16T03:51:00.286Z,15.70
2018-06-16T03:53:27.886Z,15.80
2018-06-16T03:55:55.441Z,15.80
2018-06-16T03:58:25.924Z,15.80
2018-06-16T04:00:53.517Z,15.90
2018-06-16T04:03:21.169Z,15.80
2018-06-16T04:05:48.717Z,15.80
2018-06-16T04:08:17.249Z,15.80
2018-06-16T04:10:44.949Z,15.90
2018-06-16T04:13:12.477Z,15.90
2018-06-16T04:15:41.648Z,15.90
2018-06-16T04:18:09.180Z,16.00
2018-06-16T04:20:36.753Z,16.00
2018-06-16T04:23:04.445Z,16.00
2018-06-16T04:25:32.161Z,16.00
2018-06-16T04:27:59.704Z,16.10
2018-06-16T04:30:28.225Z,16.10
2018-06-16T04:32:55.835Z,16.20
2018-06-16T04:35:23.352Z,16.30
2018-06-16T04:37:51.082Z,16.30
2018-06-16T04:40:18.613Z,16.30
2018-06-16T04:42:46.170Z,16.30
2018-06-16T04:45:14.942Z,16.30
2018-06-16T04:47:42.637Z,16.40
2018-06-16T04:50:10.166Z,16.50
2018-06-16T04:52:37.742Z,16.50
2018-06-16T04:55:05.297Z,16.50
2018-06-16T04:57:33.761Z,16.60
2018-06-16T05:00:01.297Z,16.60
2018-06-16T05:02:31.800Z,16.70
2018-06-16T05:04:59.336Z,16.60
2018-06-16T05:07:26.921Z,16.70
2018-06-16T05:09:54.466Z,16.80
2018-06-16T05:12:22.166Z,16.70
2018-06-16T05:14:49.707Z,16.70
2018-06-16T05:17:18.208Z,16.70
2018-06-16T05:19:45.785Z,16.80
2018-06-16T05:22:13.341Z,16.70
2018-06-16T05:24:41.165Z,16.80
2018-06-16T05:27:08.898Z,16.90
2018-06-16T05:29:36.529Z,16.90
2018-06-16T05:32:04.093Z,16.90
2018-06-16T05:34:31.836Z,16.90
2018-06-16T05:36:59.417Z,17.00
2018-06-16T05:39:27.013Z,17.10
2018-06-16T05:41:54.605Z,17.20
2018-06-16T05:44:23.740Z,17.20
2018-06-16T05:46:52.054Z,17.30
2018-06-16T05:49:19.733Z,17.50
2018-06-16T05:51:47.367Z,17.50
2018-06-16T05:54:15.809Z,17.50
2018-06-16T05:56:43.433Z,17.70
2018-06-16T05:59:11.563Z,17.90
2018-06-16T06:01:39.855Z,18.20
2018-06-16T06:04:08.367Z,18.50
2018-06-16T06:06:36.017Z,18.70
2018-06-16T06:09:05.325Z,18.90
2018-06-16T06:11:32.874Z,19.10
2018-06-16T06:14:00.593Z,19.20
2018-06-16T06:16:28.505Z,19.20
2018-06-16T06:18:56.202Z,19.40
2018-06-16T06:21:27.629Z,19.50
2018-06-16T06:23:55.493Z,19.60
2018-06-16T06:26:23.281Z,19.70
2018-06-16T06:28:50.949Z,19.60
2018-06-16T06:31:18.875Z,19.80
2018-06-16T06:33:47.995Z,19.70
2018-06-16T06:36:17.070Z,19.80
2018-06-16T06:38:46.673Z,19.80
2018-06-16T06:41:14.319Z,19.90
2018-06-16T06:43:41.894Z,20.00
2018-06-16T06:46:09.469Z,19.90
2018-06-16T06:48:40.086Z,20.10
2018-06-16T06:51:07.762Z,20.10
2018-06-16T06:53:36.015Z,20.20
2018-06-16T06:56:03.649Z,20.50
2018-06-16T06:58:31.260Z,20.60
2018-06-16T07:00:58.886Z,20.50
2018-06-16T07:03:27.216Z,20.40
2018-06-16T07:05:55.385Z,20.20
2018-06-16T07:08:23.508Z,20.20
2018-06-16T07:10:51.132Z,20.10
2018-06-16T07:13:19.402Z,19.90
2018-06-16T07:15:47.123Z,20.00
2018-06-16T07:18:14.701Z,19.90
2018-06-16T07:20:43.033Z,19.90
2018-06-16T07:23:10.673Z,20.10
2018-06-16T07:25:39.542Z,19.90
2018-06-16T07:28:07.214Z,19.90
2018-06-16T07:30:42.996Z,20.00
2018-06-16T07:33:10.823Z,20.20
2018-06-16T07:35:38.413Z,20.20
2018-06-16T07:38:05.982Z,20.30
2018-06-16T07:40:33.637Z,20.40
2018-06-16T07:43:01.253Z,20.50
2018-06-16T07:45:28.904Z,20.50
2018-06-16T07:47:56.565Z,20.80
2018-06-16T07:50:24.353Z,20.90
2018-06-16T07:52:52.009Z,20.90
2018-06-16T07:55:19.664Z,21.00
2018-06-16T07:57:47.355Z,21.10
2018-06-16T08:00:17.726Z,21.00
2018-06-16T08:02:45.443Z,20.90
2018-06-16T08:05:13.089Z,21.00
2018-06-16T08:07:40.645Z,21.00
2018-06-16T08:10:13.174Z,21.30
2018-06-16T08:12:40.789Z,21.40
2018-06-16T08:15:08.389Z,21.70
2018-06-16T08:17:35.957Z,21.80
2018-06-16T08:20:03.561Z,21.60
2018-06-16T08:22:31.132Z,21.70
2018-06-16T08:24:58.749Z,22.00
2018-06-16T08:27:26.497Z,22.00
2018-06-16T08:29:54.070Z,22.00
2018-06-16T08:32:21.644Z,22.20
2018-06-16T08:34:49.295Z,22.30
2018-06-16T08:37:16.997Z,22.50
2018-06-16T08:39:44.638Z,22.60
2018-06-16T08:42:12.332Z,22.60
2018-06-16T08:44:39.890Z,22.60
2018-06-16T08:47:07.532Z,22.90
2018-06-16T08:49:35.101Z,23.20
2018-06-16T08:52:02.682Z,23.50
2018-06-16T08:54:30.441Z,23.60
2018-06-16T08:56:58.462Z,23.70
2018-06-16T08:59:27.286Z,23.70
2018-06-16T09:01:54.868Z,23.80
2018-06-16T09:04:22.444Z,23.90
2018-06-16T09:06:50.041Z,23.90
2018-06-16T09:09:18.060Z,24.00
2018-06-16T09:11:46.113Z,24.10
2018-06-16T09:14:14.134Z,24.20
2018-06-16T09:16:42.466Z,24.20
2018-06-16T09:19:10.510Z,24.10
2018-06-16T09:21:38.388Z,24.30
2018-06-16T09:24:06.337Z,24.50
2018-06-16T09:26:34.142Z,24.60
2018-06-16T09:29:01.877Z,24.70
2018-06-16T09:31:29.611Z,24.50
2018-06-16T09:33:57.490Z,24.60
2018-06-16T09:36:25.054Z,24.50
2018-06-16T09:38:53.065Z,24.70
2018-06-16T09:41:20.693Z,25.00
2018-06-16T09:43:48.258Z,25.20
2018-06-16T09:46:16.221Z,25.10
2018-06-16T09:48:43.813Z,25.00
2018-06-16T09:51:11.412Z,25.00
2018-06-16T09:53:39.105Z,25.20
2018-06-16T09:56:07.240Z,25.10
2018-06-16T09:58:34.869Z,24.50
2018-06-16T10:01:02.547Z,24.50
2018-06-16T10:03:30.809Z,24.90
2018-06-16T10:05:59.277Z,25.10
2018-06-16T10:08:26.862Z,25.10
2018-06-16T10:10:54.442Z,25.20
2018-06-16T10:13:23.408Z,25.20
2018-06-16T10:15:51.166Z,25.20
2018-06-16T10:18:20.733Z,25.30
2018-06-16T10:20:48.909Z,25.20
2018-06-16T10:23:17.329Z,25.30
2018-06-16T10:25:45.247Z,25.20
2018-06-16T10:28:13.672Z,25.40
2018-06-16T10:30:41.913Z,25.50
2018-06-16T10:33:10.405Z,25.90
2018-06-16T10:35:37.972Z,25.90
2018-06-16T10:38:05.569Z,26.20
2018-06-16T10:40:33.245Z,26.40
2018-06-16T10:43:02.206Z,26.60
2018-06-16T10:45:30.188Z,26.70
2018-06-16T10:47:58.793Z,26.50
2018-06-16T10:50:26.580Z,26.40
2018-06-16T10:52:54.344Z,26.40
2018-06-16T10:55:21.937Z,26.50
2018-06-16T10:57:49.541Z,26.70
2018-06-16T11:00:17.437Z,27.00
2018-06-16T11:02:45.144Z,26.40
2018-06-16T11:05:12.754Z,25.90
2018-06-16T11:07:40.344Z,26.10
2018-06-16T11:10:08.706Z,26.30
2018-06-16T11:12:36.277Z,26.60
2018-06-16T11:15:05.985Z,26.50
2018-06-16T11:17:33.613Z,26.50
2018-06-16T11:20:01.609Z,26.50
2018-06-16T11:22:29.172Z,26.40
2018-06-16T11:24:56.741Z,26.20
2018-06-16T11:27:24.277Z,26.60
2018-06-16T11:29:51.907Z,27.00
2018-06-16T11:32:21.239Z,27.20
2018-06-16T11:34:48.861Z,27.70
2018-06-16T11:37:16.437Z,27.40
2018-06-16T11:39:44.110Z,27.10
2018-06-16T11:42:12.057Z,27.20
2018-06-16T11:44:39.829Z,27.50
2018-06-16T11:47:08.097Z,26.80
2018-06-16T11:49:35.821Z,26.50
2018-06-16T11:52:03.444Z,26.60
2018-06-16T11:54:31.163Z,26.60
2018-06-16T11:56:58.764Z,26.70
2018-06-16T11:59:26.816Z,26.20
2018-06-16T12:01:54.432Z,26.00
2018-06-16T12:04:21.997Z,26.00
2018-06-16T12:06:49.558Z,26.00
2018-06-16T12:09:17.129Z,26.00
2018-06-16T12:11:45.197Z,26.00
2018-06-16T12:14:12.765Z,26.00
2018-06-16T12:16:40.897Z,26.40
2018-06-16T12:19:08.489Z,27.00
2018-06-16T12:21:36.583Z,27.50
2018-06-16T12:24:04.205Z,28.00
2018-06-16T12:26:31.892Z,28.40
2018-06-16T12:28:59.661Z,28.50
2018-06-16T12:31:27.338Z,28.10
2018-06-16T12:33:54.935Z,27.60
2018-06-16T12:36:24.426Z,27.40
2018-06-16T12:38:52.044Z,27.00
2018-06-16T12:41:19.769Z,26.70
2018-06-16T12:43:47.363Z,26.50
2018-06-16T12:46:15.105Z,26.10
2018-06-16T12:48:42.648Z,25.60
2018-06-16T12:51:10.294Z,25.10
2018-06-16T12:53:38.248Z,25.00
2018-06-16T12:56:05.937Z,24.90
2018-06-16T12:58:33.562Z,24.70
2018-06-16T13:01:01.229Z,24.60
2018-06-16T13:03:28.789Z,24.60
2018-06-16T13:05:56.373Z,24.70
2018-06-16T13:08:23.944Z,24.70
2018-06-16T13:10:51.585Z,24.80
2018-06-16T13:13:19.173Z,24.70
2018-06-16T13:15:47.014Z,24.60
2018-06-16T13:18:14.626Z,24.60
2018-06-16T13:20:42.784Z,24.50
2018-06-16T13:23:10.686Z,24.70
2018-06-16T13:25:38.371Z,24.80
2018-06-16T13:28:06.852Z,25.00
2018-06-16T13:30:34.437Z,25.30
2018-06-16T13:33:02.057Z,25.50
2018-06-16T13:35:29.686Z,25.90
2018-06-16T13:37:57.249Z,26.40
2018-06-16T13:40:24.861Z,27.30
2018-06-16T13:42:52.450Z,27.80
2018-06-16T13:45:20.050Z,28.00
2018-06-16T13:47:47.612Z,28.30
2018-06-16T13:50:15.267Z,28.80
2018-06-16T13:52:43.281Z,29.20
2018-06-16T13:55:10.877Z,29.50
2018-06-16T13:57:38.485Z,29.20
2018-06-16T14:00:06.077Z,28.90
2018-06-16T14:02:33.745Z,29.10
2018-06-16T14:05:01.321Z,29.10
2018-06-16T14:07:28.902Z,28.70
2018-06-16T14:09:56.461Z,28.20
2018-06-16T14:12:24.806Z,28.10
2018-06-16T14:14:52.459Z,28.10
2018-06-16T14:17:20.070Z,28.30
2018-06-16T14:19:47.698Z,28.20
2018-06-16T14:22:15.316Z,28.20
2018-06-16T14:24:43.909Z,28.60
2018-06-16T14:27:11.518Z,29.10
2018-06-16T14:29:39.337Z,29.00
2018-06-16T14:32:07.042Z,29.10
2018-06-16T14:34:34.598Z,30.70
2018-06-16T14:37:02.676Z,31.30
2018-06-16T14:39:30.261Z,31.00
2018-06-16T14:41:57.854Z,30.10
2018-06-16T14:44:25.397Z,29.70
2018-06-16T14:46:52.976Z,30.60
2018-06-16T14:49:20.550Z,30.00
2018-06-16T14:51:48.138Z,29.30
2018-06-16T14:54:15.801Z,28.50
2018-06-16T14:56:43.718Z,27.70
2018-06-16T14:59:11.294Z,27.00
2018-06-16T15:01:38.873Z,26.70
2018-06-16T15:04:06.454Z,26.50
2018-06-16T15:06:34.489Z,26.30
2018-06-16T15:09:02.744Z,26.10
2018-06-16T15:11:30.745Z,26.30
2018-06-16T15:13:58.328Z,26.70
2018-06-16T15:16:26.193Z,26.80
2018-06-16T15:18:54.624Z,26.60
2018-06-16T15:21:22.281Z,26.40
2018-06-16T15:23:49.890Z,26.10
2018-06-16T15:26:17.485Z,25.60
2018-06-16T15:28:45.321Z,25.40
2018-06-16T15:31:13.222Z,25.20
2018-06-16T15:33:41.080Z,24.80
2018-06-16T15:36:08.686Z,24.60
2018-06-16T15:38:36.321Z,24.40
2018-06-16T15:41:03.979Z,23.90
2018-06-16T15:43:31.661Z,23.20
2018-06-16T15:45:59.237Z,22.30
2018-06-16T15:48:26.985Z,21.60
2018-06-16T15:50:54.918Z,21.40
2018-06-16T15:53:22.504Z,21.20
2018-06-16T15:55:50.379Z,21.10
2018-06-16T15:58:19.070Z,21.20
2018-06-16T16:00:46.693Z,21.10
2018-06-16T16:03:14.446Z,21.30
2018-06-16T16:05:42.966Z,21.30
2018-06-16T16:08:11.237Z,21.30
2018-06-16T16:10:39.242Z,21.30
2018-06-16T16:13:07.320Z,21.30
2018-06-16T16:15:35.762Z,21.40
2018-06-16T16:18:03.378Z,21.40
2018-06-16T16:20:31.893Z,21.40
2018-06-16T16:22:59.462Z,21.40
2018-06-16T16:25:27.130Z,21.40
2018-06-16T16:27:55.149Z,21.50
2018-06-16T16:30:23.417Z,21.80
2018-06-16T16:32:51.230Z,22.00
2018-06-16T16:35:19.057Z,22.40
2018-06-16T16:37:47.068Z,22.90
2018-06-16T16:40:15.040Z,23.50
2018-06-16T16:42:42.678Z,23.80
2018-06-16T16:45:10.221Z,24.70
2018-06-16T16:47:39.708Z,26.00
2018-06-16T16:50:07.313Z,27.10
2018-06-16T16:52:35.042Z,27.80
2018-06-16T16:58:34.199Z,26.10
2018-06-16T17:01:02.641Z,25.10
2018-06-16T17:03:30.308Z,24.30
2018-06-16T17:05:57.865Z,23.90
2018-06-16T17:08:25.438Z,23.60
2018-06-16T17:10:53.209Z,23.50
2018-06-16T17:13:20.814Z,23.00
2018-06-16T17:15:48.664Z,22.70
2018-06-16T17:18:17.321Z,22.30
2018-06-16T17:20:45.416Z,22.10
2018-06-16T17:23:12.999Z,21.90
2018-06-16T17:25:40.541Z,21.70
2018-06-16T17:28:08.125Z,21.50
2018-06-16T17:30:35.673Z,21.40
2018-06-16T17:33:04.546Z,21.30
2018-06-16T17:35:32.221Z,21.10
2018-06-16T17:38:00.202Z,20.90
2018-06-16T17:40:28.221Z,20.70
2018-06-16T17:42:55.780Z,20.60
2018-06-16T17:45:23.308Z,20.40
2018-06-16T17:47:51.015Z,20.30
2018-06-16T17:50:18.845Z,20.40
2018-06-16T17:52:46.477Z,20.20
2018-06-16T17:55:14.353Z,20.20
2018-06-16T17:57:42.424Z,20.10
2018-06-16T18:00:12.452Z,20.10
2018-06-16T18:02:40.062Z,20.10
2018-06-16T18:05:08.105Z,20.10
2018-06-16T18:07:36.028Z,20.10
2018-06-16T18:12:32.053Z,20.10
2018-06-16T18:14:59.649Z,20.00
2018-06-16T18:17:27.869Z,19.90
2018-06-16T18:19:55.590Z,20.00
2018-06-16T18:22:23.260Z,20.00
2018-06-16T18:24:51.931Z,20.10
2018-06-16T18:27:19.533Z,20.00
2018-06-16T18:29:48.408Z,19.90
2018-06-16T18:32:16.051Z,19.90
2018-06-16T18:34:43.637Z,20.10
2018-06-16T18:37:11.315Z,20.30
2018-06-16T18:39:39.269Z,20.40
2018-06-16T18:42:06.997Z,20.20
2018-06-16T18:44:36.001Z,20.30
2018-06-16T18:47:03.713Z,20.30
2018-06-16T18:49:31.306Z,20.10
2018-06-16T18:51:58.889Z,20.10
2018-06-16T18:54:26.682Z,20.10
2018-06-16T18:56:54.325Z,20.10
2018-06-16T18:59:22.149Z,20.10
2018-06-16T19:01:49.718Z,20.10
2018-06-16T19:04:17.479Z,20.10
2018-06-16T19:06:45.046Z,20.20
2018-06-16T19:09:12.590Z,20.10
2018-06-16T19:11:40.372Z,20.10
2018-06-16T19:14:07.961Z,19.90
2018-06-16T19:16:35.554Z,19.80
2018-06-16T19:19:03.201Z,19.80
2018-06-16T19:21:30.790Z,19.80
2018-06-16T19:23:58.356Z,19.70
2018-06-16T19:26:26.014Z,19.60
2018-06-16T19:28:53.577Z,19.50
2018-06-16T19:31:21.144Z,19.40
2018-06-16T19:33:49.106Z,19.30
2018-06-16T19:36:16.689Z,19.30
2018-06-16T19:38:44.261Z,19.30
2018-06-16T19:41:12.104Z,19.20
2018-06-16T19:43:39.676Z,19.20
2018-06-16T19:46:07.319Z,19.10
2018-06-16T19:48:34.877Z,19.00
2018-06-16T19:51:02.474Z,18.90
2018-06-16T19:53:30.009Z,18.90
2018-06-16T19:55:57.573Z,18.80
2018-06-16T19:58:25.196Z,18.80
2018-06-16T20:00:53.556Z,18.60
2018-06-16T20:03:21.109Z,18.50
2018-06-16T20:05:48.673Z,18.50
2018-06-16T20:08:16.218Z,18.50
2018-06-16T20:10:44.060Z,18.30
2018-06-16T20:13:11.630Z,18.30
2018-06-16T20:15:39.209Z,18.20
2018-06-16T20:18:06.985Z,18.10
2018-06-16T20:20:34.541Z,18.00
2018-06-16T20:23:02.057Z,18.00
2018-06-16T20:25:29.858Z,17.90
2018-06-16T20:27:57.655Z,17.80
2018-06-16T20:30:25.208Z,17.60
2018-06-16T20:32:53.533Z,17.50
2018-06-16T20:35:21.096Z,17.60
2018-06-16T20:37:48.677Z,17.50
2018-06-16T20:40:16.250Z,17.50
2018-06-16T20:42:43.800Z,17.50
2018-06-16T20:45:11.402Z,17.40
2018-06-16T20:47:39.092Z,17.40
2018-06-16T20:50:08.310Z,17.30
2018-06-16T20:52:36.001Z,17.20
2018-06-16T20:55:03.577Z,17.20
2018-06-16T20:57:31.181Z,17.20
2018-06-16T20:59:58.921Z,17.10
2018-06-16T21:02:26.481Z,17.10
2018-06-16T21:04:54.029Z,17.00
2018-06-16T21:07:21.657Z,16.90
2018-06-16T21:09:49.194Z,16.90
2018-06-16T21:12:16.726Z,17.00
2018-06-16T21:14:44.282Z,16.90
2018-06-16T21:17:11.838Z,16.90
2018-06-16T21:19:40.303Z,17.10
2018-06-16T21:22:07.901Z,17.10
2018-06-16T21:24:35.429Z,17.20
2018-06-16T21:27:03.050Z,17.00
2018-06-16T21:29:30.677Z,17.00
2018-06-16T21:31:58.270Z,16.80
2018-06-16T21:34:25.829Z,16.80
2018-06-16T21:36:53.381Z,16.70
2018-06-16T21:39:20.917Z,16.70
2018-06-16T21:41:48.568Z,16.60
2018-06-16T21:44:16.096Z,16.70
2018-06-16T21:46:43.693Z,16.60
2018-06-16T21:49:11.209Z,16.60
2018-06-16T21:51:38.856Z,16.50
2018-06-16T21:54:06.405Z,16.50
2018-06-16T21:56:33.960Z,16.50
2018-06-16T21:59:01.509Z,16.40
2018-06-16T22:01:30.958Z,16.50
2018-06-16T22:03:58.920Z,16.40
2018-06-16T22:06:27.567Z,16.20
2018-06-16T22:08:55.343Z,16.10
2018-06-16T22:11:22.900Z,16.10
2018-06-16T22:13:50.482Z,16.00
2018-06-16T22:16:18.057Z,16.00
2018-06-16T22:18:45.760Z,15.90
2018-06-16T22:21:14.387Z,15.90
2018-06-16T22:23:42.030Z,16.00
2018-06-16T22:26:09.609Z,15.90
2018-06-16T22:28:37.181Z,15.90
2018-06-16T22:31:04.882Z,15.80
2018-06-16T22:33:32.522Z,15.90
2018-06-16T22:36:00.096Z,15.90
2018-06-16T22:38:27.701Z,15.80
2018-06-16T22:40:55.430Z,15.80
2018-06-16T22:43:23.070Z,15.80
2018-06-16T22:45:50.824Z,15.70
2018-06-16T22:48:18.511Z,15.80
2018-06-16T22:50:46.074Z,15.90
2018-06-16T22:53:13.638Z,15.80
2018-06-16T22:55:41.503Z,15.70
2018-06-16T22:58:09.089Z,15.80
2018-06-16T23:00:36.645Z,15.80
2018-06-16T23:03:04.242Z,15.70
2018-06-16T23:05:32.518Z,15.60
2018-06-16T23:08:00.094Z,15.70
2018-06-16T23:10:27.702Z,15.60
2018-06-16T23:12:55.253Z,15.60
2018-06-16T23:15:22.945Z,15.60
2018-06-16T23:17:50.514Z,15.70
2018-06-16T23:20:18.043Z,15.50
2018-06-16T23:22:45.709Z,15.60
2018-06-16T23:25:13.361Z,15.50
2018-06-16T23:27:40.894Z,15.40
2018-06-16T23:30:08.490Z,15.30
2018-06-16T23:32:36.028Z,15.30
2018-06-16T23:35:03.656Z,15.40
2018-06-16T23:37:31.217Z,15.30
2018-06-16T23:39:58.772Z,15.30
2018-06-16T23:42:26.794Z,15.20
2018-06-16T23:44:54.396Z,15.20
2018-06-16T23:47:21.929Z,15.10
2018-06-16T23:49:49.498Z,15.10
2018-06-16T23:52:17.049Z,15.10
2018-06-16T23:54:44.610Z,15.10
2018-06-16T23:57:12.161Z,15.00
2018-06-16T23:59:39.738Z,14.90
